createdAt,value
2022-10-22T00:00:15.948Z,30.70
2022-10-22T00:01:20.151Z,31.88
2022-10-22T00:02:22.541Z,32.38
2022-10-22T00:03:25.974Z,34.13
2022-10-22T00:04:32.846Z,33.05
2022-10-22T00:05:38.290Z,35.70
2022-10-22T00:06:40.364Z,36.20
2022-10-22T00:07:43.515Z,33.50
2022-10-22T00:08:45.960Z,32.75
2022-10-22T00:09:49.958Z,33.72
2022-10-22T00:10:52.934Z,29.27
2022-10-22T00:11:56.183Z,28.40
2022-10-22T00:13:00.290Z,28.75
2022-10-22T00:14:03.396Z,33.78
2022-10-22T00:15:07.028Z,28.73
2022-10-22T00:16:10.526Z,32.13
2022-10-22T00:17:12.564Z,29.42
2022-10-22T00:18:15.805Z,34.95
2022-10-22T00:19:18.210Z,32.42
2022-10-22T00:20:21.257Z,34.88
2022-10-22T00:21:23.985Z,32.72
2022-10-22T00:22:27.152Z,30.13
2022-10-22T00:23:29.741Z,29.50
2022-10-22T00:24:33.163Z,36.70
2022-10-22T00:25:36.445Z,34.30
2022-10-22T00:26:40.385Z,32.88
2022-10-22T00:27:42.880Z,31.00
2022-10-22T00:28:47.712Z,29.88
2022-10-22T00:29:49.795Z,28.02
2022-10-22T00:30:58.017Z,34.40
2022-10-22T00:32:00.289Z,31.60
2022-10-22T00:33:03.394Z,32.13
2022-10-22T00:34:05.970Z,33.38
2022-10-22T00:35:09.367Z,31.38
2022-10-22T00:36:11.377Z,30.42
2022-10-22T00:37:14.401Z,30.23
2022-10-22T00:38:16.980Z,31.75
2022-10-22T00:39:23.368Z,31.42
2022-10-22T00:40:25.768Z,35.55
2022-10-22T00:41:29.101Z,28.88
2022-10-22T00:42:31.240Z,30.60
2022-10-22T00:43:35.070Z,30.55
2022-10-22T00:45:14.435Z,40.17
2022-10-22T00:46:17.694Z,33.30
2022-10-22T00:47:22.954Z,31.15
2022-10-22T00:48:31.232Z,32.03
2022-10-22T00:49:33.263Z,27.05
2022-10-22T00:50:39.621Z,34.97
2022-10-22T00:51:42.071Z,35.85
2022-10-22T00:52:45.590Z,31.75
2022-10-22T00:53:51.157Z,32.30
2022-10-22T00:54:54.373Z,34.10
2022-10-22T00:55:57.026Z,31.63
2022-10-22T00:57:00.230Z,32.97
2022-10-22T00:58:02.948Z,32.97
2022-10-22T01:00:13.622Z,33.83
2022-10-22T01:01:21.630Z,32.78
2022-10-22T01:02:24.286Z,30.70
2022-10-22T01:03:27.448Z,33.33
2022-10-22T01:04:29.543Z,33.83
2022-10-22T01:05:40.467Z,29.58
2022-10-22T01:06:42.735Z,32.67
2022-10-22T01:07:49.500Z,35.78
2022-10-22T01:08:58.291Z,31.98
2022-10-22T01:10:06.392Z,30.67
2022-10-22T01:11:16.841Z,31.63
2022-10-22T01:12:25.179Z,33.15
2022-10-22T01:13:36.846Z,32.47
2022-10-22T01:15:04.524Z,31.10
2022-10-22T01:16:12.515Z,31.38
2022-10-22T01:17:25.008Z,34.28
2022-10-22T01:18:35.944Z,32.53
2022-10-22T01:21:05.930Z,35.53
2022-10-22T01:22:17.022Z,38.65
2022-10-22T01:23:36.281Z,30.27
2022-10-22T01:24:52.409Z,28.95
2022-10-22T01:26:04.540Z,29.23
2022-10-22T01:27:27.771Z,31.60
2022-10-22T01:28:57.619Z,36.75
2022-10-22T01:30:03.934Z,39.25
2022-10-22T01:31:10.159Z,33.20
2022-10-22T01:32:17.111Z,35.22
2022-10-22T01:33:23.085Z,33.45
2022-10-22T01:34:26.188Z,35.20
2022-10-22T01:36:38.964Z,35.67
2022-10-22T01:37:45.656Z,33.28
2022-10-22T01:38:49.703Z,36.67
2022-10-22T01:39:54.179Z,36.42
2022-10-22T01:40:57.568Z,47.92
2022-10-22T01:42:00.734Z,39.42
2022-10-22T01:43:04.928Z,39.00
2022-10-22T01:44:30.805Z,37.85
2022-10-22T01:45:35.826Z,39.30
2022-10-22T01:46:39.571Z,38.83
2022-10-22T01:47:54.386Z,39.63
2022-10-22T01:49:16.119Z,38.25
2022-10-22T01:50:45.454Z,37.70
2022-10-22T01:51:58.817Z,39.13
2022-10-22T01:53:14.220Z,37.85
2022-10-22T01:54:27.208Z,43.55
2022-10-22T01:55:36.399Z,43.00
2022-10-22T01:56:55.875Z,49.30
2022-10-22T01:58:06.239Z,39.60
2022-10-22T01:59:16.648Z,38.00
2022-10-22T02:00:20.860Z,40.22
2022-10-22T02:01:31.888Z,41.03
2022-10-22T02:02:42.049Z,44.95
2022-10-22T02:03:49.295Z,50.22
2022-10-22T02:04:57.199Z,49.85
2022-10-22T02:06:05.161Z,45.78
2022-10-22T02:07:11.736Z,44.00
2022-10-22T02:08:18.526Z,41.17
2022-10-22T02:09:23.110Z,43.03
2022-10-22T02:10:27.216Z,45.78
2022-10-22T02:11:29.857Z,45.83
2022-10-22T02:12:34.961Z,49.90
2022-10-22T02:13:42.465Z,49.42
2022-10-22T02:14:46.903Z,50.17
2022-10-22T02:15:53.027Z,58.25
2022-10-22T02:16:59.305Z,52.78
2022-10-22T02:18:01.501Z,43.75
2022-10-22T02:19:09.071Z,46.03
2022-10-22T02:20:16.471Z,60.75
2022-10-22T02:21:19.583Z,58.72
2022-10-22T02:22:21.988Z,45.03
2022-10-22T02:23:25.109Z,55.40
2022-10-22T02:24:27.781Z,47.28
2022-10-22T02:25:33.776Z,49.05
2022-10-22T02:26:41.983Z,50.90
2022-10-22T02:27:47.797Z,47.50
2022-10-22T02:28:58.321Z,59.47
2022-10-22T02:30:06.489Z,66.78
2022-10-22T02:31:15.200Z,91.90
2022-10-22T02:32:22.893Z,72.53
2022-10-22T02:33:28.852Z,64.22
2022-10-22T02:34:33.236Z,44.97
2022-10-22T02:35:36.593Z,58.70
2022-10-22T02:36:42.786Z,49.08
2022-10-22T02:37:48.759Z,45.17
2022-10-22T02:38:53.344Z,48.00
2022-10-22T02:39:56.452Z,66.60
2022-10-22T02:41:00.106Z,51.72
2022-10-22T02:42:03.055Z,50.72
2022-10-22T02:43:06.615Z,47.70
2022-10-22T02:44:10.955Z,37.20
2022-10-22T02:45:14.098Z,41.22
2022-10-22T02:46:17.728Z,47.17
2022-10-22T02:47:21.234Z,49.03
2022-10-22T02:48:23.288Z,48.75
2022-10-22T02:49:26.338Z,43.08
2022-10-22T02:50:28.523Z,46.35
2022-10-22T02:51:32.562Z,47.47
2022-10-22T02:52:35.716Z,49.10
2022-10-22T02:53:39.374Z,45.58
2022-10-22T02:54:41.444Z,41.60
2022-10-22T02:55:44.583Z,47.67
2022-10-22T02:56:46.825Z,43.40
2022-10-22T02:57:49.931Z,44.22
2022-10-22T02:58:52.064Z,37.42
2022-10-22T02:59:55.273Z,41.85
2022-10-22T03:00:57.522Z,42.75
2022-10-22T03:02:01.999Z,42.70
2022-10-22T03:03:04.059Z,48.97
2022-10-22T03:04:07.093Z,48.22
2022-10-22T03:05:10.244Z,40.10
2022-10-22T03:06:13.672Z,45.85
2022-10-22T03:07:15.909Z,40.13
2022-10-22T03:08:19.150Z,39.22
2022-10-22T03:09:24.035Z,37.22
2022-10-22T03:10:27.972Z,47.45
2022-10-22T03:11:30.023Z,48.40
2022-10-22T03:12:33.113Z,53.50
2022-10-22T03:13:35.204Z,42.15
2022-10-22T03:14:39.665Z,48.28
2022-10-22T03:15:41.856Z,42.00
2022-10-22T03:16:45.036Z,40.15
2022-10-22T03:17:48.450Z,47.13
2022-10-22T03:18:51.473Z,41.03
2022-10-22T03:19:53.630Z,41.13
2022-10-22T03:21:05.412Z,43.10
2022-10-22T03:22:10.540Z,44.17
2022-10-22T03:23:16.561Z,43.60
2022-10-22T03:24:21.536Z,41.78
2022-10-22T03:25:28.525Z,38.55
2022-10-22T03:26:32.730Z,37.65
2022-10-22T03:27:37.662Z,37.40
2022-10-22T03:28:41.334Z,39.75
2022-10-22T03:29:46.938Z,38.65
2022-10-22T03:30:49.007Z,40.55
2022-10-22T03:31:53.074Z,43.55
2022-10-22T03:32:56.518Z,49.08
2022-10-22T03:33:59.583Z,45.47
2022-10-22T03:35:01.797Z,49.95
2022-10-22T03:36:05.467Z,44.67
2022-10-22T03:37:08.527Z,51.63
2022-10-22T03:38:10.970Z,44.75
2022-10-22T03:39:15.826Z,52.10
2022-10-22T03:40:19.015Z,53.03
2022-10-22T03:41:22.268Z,45.03
2022-10-22T03:42:24.892Z,51.22
2022-10-22T03:43:28.527Z,51.50
2022-10-22T03:44:31.164Z,54.78
2022-10-22T03:45:34.271Z,43.03
2022-10-22T03:46:36.643Z,47.35
2022-10-22T03:47:39.933Z,52.22
2022-10-22T03:48:43.526Z,50.72
2022-10-22T03:49:46.651Z,45.08
2022-10-22T03:50:49.552Z,47.47
2022-10-22T03:51:52.604Z,44.35
2022-10-22T03:52:54.663Z,52.17
2022-10-22T03:53:57.737Z,53.45
2022-10-22T03:54:59.776Z,46.60
2022-10-22T03:56:02.975Z,56.35
2022-10-22T03:57:05.733Z,46.97
2022-10-22T03:58:08.816Z,58.20
2022-10-22T03:59:10.942Z,63.00
2022-10-22T04:00:14.211Z,54.25
2022-10-22T04:01:16.332Z,53.85
2022-10-22T04:02:19.448Z,75.30
2022-10-22T04:03:21.500Z,66.25
2022-10-22T04:04:26.069Z,55.58
2022-10-22T04:05:28.161Z,66.93
2022-10-22T04:06:31.830Z,59.72
2022-10-22T04:07:33.839Z,76.53
2022-10-22T04:08:37.624Z,68.28
2022-10-22T04:09:39.774Z,63.38
2022-10-22T04:10:42.853Z,63.65
2022-10-22T04:11:44.925Z,64.28
2022-10-22T04:12:49.259Z,60.80
2022-10-22T04:13:51.273Z,64.80
2022-10-22T04:14:54.322Z,71.00
2022-10-22T04:15:56.451Z,71.53
2022-10-22T04:16:59.495Z,77.18
2022-10-22T04:18:01.531Z,69.80
2022-10-22T04:19:04.613Z,68.35
2022-10-22T04:20:09.289Z,77.53
2022-10-22T04:21:14.159Z,79.00
2022-10-22T04:22:16.197Z,65.18
2022-10-22T04:23:19.266Z,77.38
2022-10-22T04:24:21.423Z,85.07
2022-10-22T04:25:24.509Z,89.47
2022-10-22T04:26:26.718Z,68.78
2022-10-22T04:27:31.465Z,62.35
2022-10-22T04:28:33.567Z,70.00
2022-10-22T04:29:36.839Z,78.53
2022-10-22T04:30:38.872Z,94.55
2022-10-22T04:31:41.966Z,88.57
2022-10-22T04:32:44.169Z,74.45
2022-10-22T04:33:47.612Z,74.88
2022-10-22T04:34:49.634Z,68.32
2022-10-22T04:35:54.060Z,71.95
2022-10-22T04:36:56.554Z,81.40
2022-10-22T04:37:59.661Z,97.90
2022-10-22T04:39:02.536Z,82.82
2022-10-22T04:40:06.525Z,70.85
2022-10-22T04:41:10.433Z,73.45
2022-10-22T04:42:13.814Z,73.80
2022-10-22T04:43:15.920Z,74.90
2022-10-22T04:44:18.965Z,67.55
2022-10-22T04:45:22.054Z,69.55
2022-10-22T04:46:27.764Z,88.65
2022-10-22T04:47:30.941Z,73.20
2022-10-22T04:48:33.033Z,97.03
2022-10-22T04:49:36.113Z,67.30
2022-10-22T04:50:38.212Z,66.22
2022-10-22T04:51:43.799Z,70.53
2022-10-22T04:52:45.958Z,69.78
2022-10-22T04:53:50.149Z,77.68
2022-10-22T04:54:52.232Z,72.90
2022-10-22T04:55:55.324Z,73.13
2022-10-22T04:56:58.416Z,65.43
2022-10-22T04:58:01.382Z,72.80
2022-10-22T04:59:06.823Z,71.47
2022-10-22T05:00:10.126Z,68.05
2022-10-22T05:01:15.576Z,67.80
2022-10-22T05:02:17.730Z,69.63
2022-10-22T05:03:20.768Z,69.28
2022-10-22T05:04:22.775Z,103.93
2022-10-22T05:05:25.805Z,73.63
2022-10-22T05:06:29.021Z,228.52
2022-10-22T05:07:33.496Z,105.38
2022-10-22T05:08:35.700Z,87.60
2022-10-22T05:09:39.105Z,78.55
2022-10-22T05:10:41.127Z,99.57
2022-10-22T05:11:48.436Z,69.03
2022-10-22T05:12:51.607Z,75.65
2022-10-22T05:13:55.144Z,73.10
2022-10-22T05:14:58.177Z,64.03
2022-10-22T05:16:01.589Z,83.15
2022-10-22T05:17:04.684Z,74.82
2022-10-22T05:18:06.803Z,66.35
2022-10-22T05:19:10.175Z,424.83
2022-10-22T05:20:12.372Z,88.82
2022-10-22T05:21:17.523Z,283.80
2022-10-22T05:22:19.605Z,109.13
2022-10-22T05:23:24.065Z,63.75
2022-10-22T05:24:26.827Z,64.22
2022-10-22T05:25:29.921Z,66.22
2022-10-22T05:26:31.981Z,383.92
2022-10-22T05:27:35.023Z,66.13
2022-10-22T05:28:37.574Z,69.32
2022-10-22T05:29:40.726Z,139.43
2022-10-22T05:30:42.770Z,265.00
2022-10-22T05:31:45.923Z,235.35
2022-10-22T05:32:47.985Z,108.85
2022-10-22T05:33:51.110Z,56.10
2022-10-22T05:34:53.237Z,53.95
2022-10-22T05:35:56.683Z,56.42
2022-10-22T05:36:59.773Z,59.30
2022-10-22T05:38:01.840Z,53.58
2022-10-22T05:39:06.809Z,75.95
2022-10-22T05:40:19.313Z,125.55
2022-10-22T05:41:24.496Z,60.00
2022-10-22T05:42:26.558Z,54.72
2022-10-22T05:43:30.129Z,47.45
2022-10-22T05:44:32.364Z,74.95
2022-10-22T05:45:38.145Z,59.97
2022-10-22T05:46:43.296Z,49.35
2022-10-22T05:47:45.462Z,55.00
2022-10-22T05:48:50.904Z,47.67
2022-10-22T05:49:54.343Z,55.13
2022-10-22T05:50:58.334Z,53.15
2022-10-22T05:52:00.387Z,50.83
2022-10-22T05:53:03.464Z,50.03
2022-10-22T05:54:08.480Z,57.80
2022-10-22T05:55:11.517Z,48.15
2022-10-22T05:56:15.930Z,52.65
2022-10-22T05:57:19.013Z,53.38
2022-10-22T05:58:21.085Z,56.47
2022-10-22T05:59:24.102Z,53.38
2022-10-22T06:00:26.166Z,51.88
2022-10-22T06:01:31.236Z,54.25
2022-10-22T06:02:33.350Z,48.35
2022-10-22T06:03:36.563Z,49.97
2022-10-22T06:04:38.674Z,52.13
2022-10-22T06:05:41.805Z,47.60
2022-10-22T06:06:47.230Z,50.30
2022-10-22T06:07:49.317Z,44.97
2022-10-22T06:08:53.885Z,47.58
2022-10-22T06:09:57.417Z,49.35
2022-10-22T06:11:01.738Z,51.15
2022-10-22T06:12:04.232Z,49.70
2022-10-22T06:13:08.205Z,53.30
2022-10-22T06:14:10.762Z,49.88
2022-10-22T06:15:14.665Z,47.80
2022-10-22T06:16:16.793Z,54.95
2022-10-22T06:17:20.054Z,61.78
2022-10-22T06:18:22.103Z,59.88
2022-10-22T06:19:26.870Z,49.15
2022-10-22T06:20:28.928Z,53.58
2022-10-22T06:21:32.983Z,51.25
2022-10-22T06:22:35.033Z,47.72
2022-10-22T06:23:39.069Z,47.55
2022-10-22T06:24:45.058Z,51.47
2022-10-22T06:25:57.975Z,54.63
2022-10-22T06:27:01.065Z,49.15
2022-10-22T06:28:03.247Z,51.08
2022-10-22T06:29:06.365Z,55.83
2022-10-22T06:30:09.422Z,71.60
2022-10-22T06:31:12.506Z,59.25
2022-10-22T06:32:14.595Z,52.38
2022-10-22T06:33:17.669Z,46.33
2022-10-22T06:34:19.779Z,53.05
2022-10-22T06:35:22.818Z,54.65
2022-10-22T06:36:26.418Z,51.45
2022-10-22T06:37:28.479Z,53.78
2022-10-22T06:38:31.552Z,52.90
2022-10-22T06:39:34.592Z,57.08
2022-10-22T06:40:36.655Z,51.42
2022-10-22T06:41:41.274Z,54.25
2022-10-22T06:42:43.486Z,56.55
2022-10-22T06:43:47.570Z,48.65
2022-10-22T06:44:49.700Z,48.67
2022-10-22T06:45:52.766Z,47.35
2022-10-22T06:46:54.817Z,51.33
2022-10-22T06:47:58.268Z,54.88
2022-10-22T06:49:03.104Z,48.10
2022-10-22T06:50:06.880Z,45.78
2022-10-22T06:51:10.952Z,51.33
2022-10-22T06:52:14.072Z,41.72
2022-10-22T06:53:16.188Z,51.05
2022-10-22T06:54:19.394Z,49.30
2022-10-22T06:55:21.486Z,43.90
2022-10-22T06:56:26.558Z,48.92
2022-10-22T06:57:30.207Z,43.97
2022-10-22T06:58:33.204Z,53.78
2022-10-22T06:59:35.222Z,44.97
2022-10-22T07:00:38.257Z,43.58
2022-10-22T07:01:42.326Z,41.17
2022-10-22T07:02:44.448Z,47.92
2022-10-22T07:03:47.655Z,43.47
2022-10-22T07:04:49.780Z,41.22
2022-10-22T07:05:52.871Z,46.58
2022-10-22T07:06:55.218Z,51.47
2022-10-22T07:07:58.191Z,49.55
2022-10-22T07:09:00.902Z,41.33
2022-10-22T07:10:03.977Z,39.72
2022-10-22T07:11:07.376Z,39.13
2022-10-22T07:12:10.424Z,41.45
2022-10-22T07:13:13.805Z,44.03
2022-10-22T07:14:16.909Z,41.05
2022-10-22T07:15:18.910Z,38.05
2022-10-22T07:20:41.590Z,40.20
2022-10-22T07:21:44.660Z,36.00
2022-10-22T07:22:46.823Z,40.55
2022-10-22T07:23:50.173Z,35.13
2022-10-22T07:24:52.219Z,41.42
2022-10-22T07:26:59.692Z,38.45
2022-10-22T07:28:01.699Z,43.67
2022-10-22T07:29:06.943Z,40.47
2022-10-22T07:30:09.899Z,35.45
2022-10-22T07:31:14.478Z,42.97
2022-10-22T07:32:18.750Z,40.33
2022-10-22T07:33:23.648Z,37.78
2022-10-22T07:34:25.666Z,41.75
2022-10-22T07:35:28.739Z,36.40
2022-10-22T07:36:30.765Z,37.13
2022-10-22T07:37:33.775Z,42.40
2022-10-22T07:38:36.469Z,36.10
2022-10-22T07:39:39.505Z,36.35
2022-10-22T07:40:41.783Z,30.73
2022-10-22T07:41:44.800Z,39.28
2022-10-22T07:42:46.796Z,34.63
2022-10-22T07:43:53.658Z,31.85
2022-10-22T07:44:57.044Z,30.35
2022-10-22T07:46:00.716Z,36.03
2022-10-22T07:47:04.598Z,33.30
2022-10-22T07:48:08.099Z,34.78
2022-10-22T07:49:11.530Z,28.67
2022-10-22T07:50:18.510Z,31.70
2022-10-22T07:51:26.307Z,29.58
2022-10-22T07:52:35.406Z,33.17
2022-10-22T07:53:40.548Z,30.30
2022-10-22T07:54:44.776Z,31.23
2022-10-22T07:55:50.235Z,31.95
2022-10-22T07:56:54.227Z,30.00
2022-10-22T07:57:57.352Z,34.13
2022-10-22T07:59:03.420Z,30.90
2022-10-22T08:00:08.986Z,29.85
2022-10-22T08:01:20.598Z,34.85
2022-10-22T08:02:23.409Z,30.15
2022-10-22T08:03:28.423Z,30.13
2022-10-22T08:04:30.508Z,33.05
2022-10-22T08:05:33.575Z,30.48
2022-10-22T08:06:38.614Z,31.15
2022-10-22T08:07:40.885Z,37.03
2022-10-22T08:08:45.758Z,33.03
2022-10-22T08:09:47.893Z,29.13
2022-10-22T08:10:53.937Z,34.67
2022-10-22T08:11:56.023Z,32.47
2022-10-22T08:12:59.831Z,32.95
2022-10-22T08:14:01.913Z,30.52
2022-10-22T08:15:07.906Z,28.83
2022-10-22T08:16:10.218Z,32.33
2022-10-22T08:17:13.297Z,29.30
2022-10-22T08:18:15.418Z,30.90
2022-10-22T08:19:21.161Z,30.98
2022-10-22T08:20:23.267Z,32.00
2022-10-22T08:21:26.670Z,35.10
2022-10-22T08:22:29.198Z,28.92
2022-10-22T08:23:32.885Z,33.08
2022-10-22T08:24:35.021Z,30.27
2022-10-22T08:25:38.259Z,29.58
2022-10-22T08:26:41.154Z,30.17
2022-10-22T08:27:44.346Z,27.52
2022-10-22T08:28:46.491Z,31.17
2022-10-22T08:29:49.993Z,31.83
2022-10-22T08:30:53.423Z,28.83
2022-10-22T08:31:56.459Z,30.35
2022-10-22T08:32:58.504Z,28.35
2022-10-22T08:34:01.684Z,26.02
2022-10-22T08:35:04.422Z,27.02
2022-10-22T08:36:08.809Z,28.73
2022-10-22T08:37:14.334Z,26.23
2022-10-22T08:38:17.462Z,27.65
2022-10-22T08:39:19.624Z,26.50
2022-10-22T08:40:29.676Z,25.02
2022-10-22T08:41:39.389Z,25.73
2022-10-22T08:43:03.333Z,24.33
2022-10-22T08:44:24.298Z,26.85
2022-10-22T08:45:34.554Z,26.80
2022-10-22T08:46:53.819Z,25.67
2022-10-22T08:48:08.987Z,29.63
2022-10-22T08:49:18.386Z,24.30
2022-10-22T08:50:27.100Z,23.08
2022-10-22T08:51:34.148Z,27.20
2022-10-22T08:52:38.025Z,25.90
2022-10-22T08:53:51.595Z,22.45
2022-10-22T08:54:59.556Z,21.15
2022-10-22T08:56:01.830Z,20.58
2022-10-22T08:57:21.353Z,25.13
2022-10-22T08:58:33.088Z,22.50
2022-10-22T08:59:41.754Z,18.75
2022-10-22T09:00:47.522Z,17.30
2022-10-22T09:01:54.358Z,22.20
2022-10-22T09:03:17.193Z,25.45
2022-10-22T09:04:25.433Z,17.98
2022-10-22T09:05:44.064Z,24.00
2022-10-22T09:06:49.540Z,20.10
2022-10-22T09:07:56.669Z,22.33
2022-10-22T09:09:01.593Z,21.17
2022-10-22T09:10:04.171Z,14.38
2022-10-22T09:11:15.066Z,19.60
2022-10-22T09:12:20.275Z,18.17
2022-10-22T09:13:24.624Z,18.10
2022-10-22T09:14:28.043Z,18.20
2022-10-22T09:15:31.469Z,19.42
2022-10-22T09:16:39.810Z,14.70
2022-10-22T09:17:53.366Z,21.05
2022-10-22T09:19:05.410Z,15.27
2022-10-22T09:20:16.290Z,17.02
2022-10-22T09:21:30.267Z,19.75
2022-10-22T09:22:38.221Z,17.13
2022-10-22T09:23:56.693Z,17.17
2022-10-22T09:25:03.115Z,15.07
2022-10-22T09:26:14.779Z,16.98
2022-10-22T09:27:19.629Z,17.30
2022-10-22T09:28:22.868Z,16.95
2022-10-22T09:29:32.960Z,12.48
2022-10-22T09:30:38.700Z,13.57
2022-10-22T09:31:42.155Z,18.15
2022-10-22T09:32:47.570Z,13.10
2022-10-22T09:33:51.127Z,13.75
2022-10-22T09:34:59.228Z,13.40
2022-10-22T09:36:03.619Z,19.75
2022-10-22T09:37:09.229Z,15.35
2022-10-22T09:38:13.934Z,13.05
2022-10-22T09:39:27.948Z,18.08
2022-10-22T09:40:29.998Z,11.75
2022-10-22T09:41:33.248Z,16.67
2022-10-22T09:42:35.386Z,14.95
2022-10-22T09:43:38.777Z,13.35
2022-10-22T09:44:43.734Z,15.80
2022-10-22T09:45:56.187Z,14.07
2022-10-22T09:46:58.229Z,14.55
2022-10-22T09:48:12.940Z,15.77
2022-10-22T09:49:17.742Z,13.82
2022-10-22T09:50:27.383Z,14.10
2022-10-22T09:51:40.590Z,13.85
2022-10-22T09:52:44.095Z,13.15
2022-10-22T09:53:48.366Z,14.25
2022-10-22T09:54:53.752Z,14.45
2022-10-22T09:55:57.901Z,11.00
2022-10-22T09:57:07.232Z,11.63
2022-10-22T09:58:12.379Z,12.38
2022-10-22T09:59:16.742Z,17.40
2022-10-22T10:00:19.918Z,13.70
2022-10-22T10:01:29.169Z,11.48
2022-10-22T10:02:38.786Z,12.45
2022-10-22T10:03:43.557Z,16.75
2022-10-22T10:04:48.840Z,14.40
2022-10-22T10:05:55.645Z,14.02
2022-10-22T10:06:58.418Z,13.02
2022-10-22T10:08:09.458Z,16.58
2022-10-22T10:09:16.960Z,10.95
2022-10-22T10:10:32.881Z,15.63
2022-10-22T10:11:42.910Z,11.75
2022-10-22T10:12:52.610Z,12.13
2022-10-22T10:14:08.031Z,9.80
2022-10-22T10:15:20.934Z,14.30
2022-10-22T10:16:45.987Z,11.88
2022-10-22T10:17:58.153Z,12.55
2022-10-22T10:19:19.255Z,13.68
2022-10-22T10:20:32.390Z,11.68
2022-10-22T10:21:44.978Z,11.98
2022-10-22T10:22:59.201Z,9.68
2022-10-22T10:24:09.978Z,11.40
2022-10-22T10:25:31.928Z,11.82
2022-10-22T10:26:43.325Z,15.52
2022-10-22T10:27:54.030Z,13.88
2022-10-22T10:30:14.101Z,8.93
2022-10-22T10:31:26.359Z,11.77
2022-10-22T10:32:45.027Z,7.95
2022-10-22T10:33:57.042Z,13.02
2022-10-22T10:35:15.277Z,12.27
2022-10-22T10:36:24.979Z,18.40
2022-10-22T10:37:32.281Z,14.43
2022-10-22T10:38:49.465Z,8.68
2022-10-22T10:40:11.687Z,13.15
2022-10-22T10:41:20.493Z,11.07
2022-10-22T10:42:31.894Z,11.20
2022-10-22T10:43:45.856Z,10.95
2022-10-22T10:45:03.681Z,9.45
2022-10-22T10:47:34.186Z,8.18
2022-10-22T10:48:50.109Z,12.27
2022-10-22T10:49:58.413Z,12.18
2022-10-22T10:51:12.838Z,12.85
2022-10-22T10:52:24.210Z,13.02
2022-10-22T10:53:40.193Z,11.50
2022-10-22T10:54:48.459Z,13.25
2022-10-22T10:55:59.717Z,13.65
2022-10-22T10:57:10.482Z,10.63
2022-10-22T10:59:33.434Z,8.70
2022-10-22T11:00:41.159Z,12.95
2022-10-22T11:01:57.360Z,8.40
2022-10-22T11:03:28.261Z,12.05
2022-10-22T11:05:00.179Z,14.80
2022-10-22T11:06:07.799Z,12.00
2022-10-22T11:07:30.013Z,13.55
2022-10-22T11:08:41.885Z,15.68
2022-10-22T11:09:51.009Z,10.02
2022-10-22T11:11:01.139Z,10.23
2022-10-22T11:12:08.892Z,18.27
2022-10-22T11:13:19.478Z,9.48
2022-10-22T11:14:27.896Z,12.35
2022-10-22T11:16:43.551Z,11.23
2022-10-22T11:17:48.250Z,7.95
2022-10-22T11:18:59.473Z,9.52
2022-10-22T11:20:09.895Z,12.18
2022-10-22T11:21:22.412Z,12.13
2022-10-22T11:22:29.664Z,13.10
2022-10-22T11:23:39.593Z,7.97
2022-10-22T11:24:47.650Z,9.00
2022-10-22T11:25:50.733Z,8.15
2022-10-22T11:26:59.058Z,9.25
2022-10-22T11:28:20.332Z,10.55
2022-10-22T11:29:37.515Z,10.20
2022-10-22T11:30:44.307Z,12.80
2022-10-22T11:31:48.637Z,10.13
2022-10-22T11:32:56.201Z,8.95
2022-10-22T11:34:28.333Z,10.35
2022-10-22T11:35:34.861Z,8.00
2022-10-22T11:36:39.956Z,11.38
2022-10-22T11:37:45.332Z,20.85
2022-10-22T11:38:47.517Z,10.80
2022-10-22T11:39:54.260Z,9.75
2022-10-22T11:40:59.465Z,11.18
2022-10-22T11:42:06.401Z,12.27
2022-10-22T11:43:11.077Z,10.80
2022-10-22T11:44:23.618Z,10.70
2022-10-22T11:45:33.310Z,13.00
2022-10-22T11:46:43.269Z,9.95
2022-10-22T11:47:59.154Z,12.43
2022-10-22T11:49:04.517Z,13.90
2022-10-22T11:50:22.803Z,11.13
2022-10-22T11:51:33.332Z,10.85
2022-10-22T11:53:44.169Z,10.05
2022-10-22T11:54:47.214Z,10.55
2022-10-22T11:55:51.583Z,10.85
2022-10-22T11:57:00.001Z,11.05
2022-10-22T11:58:24.056Z,16.00
2022-10-22T11:59:39.556Z,10.23
2022-10-22T12:00:49.171Z,10.95
2022-10-22T12:01:57.031Z,11.90
2022-10-22T12:03:06.024Z,10.65
2022-10-22T12:04:23.691Z,11.40
2022-10-22T12:05:35.131Z,17.45
2022-10-22T12:06:56.954Z,11.60
2022-10-22T12:08:23.136Z,13.88
2022-10-22T12:09:32.799Z,11.18
2022-10-22T12:10:37.144Z,11.25
2022-10-22T12:11:42.741Z,15.10
2022-10-22T12:12:52.862Z,14.75
2022-10-22T12:14:05.667Z,11.90
2022-10-22T12:15:27.096Z,10.82
2022-10-22T12:16:57.742Z,9.75
2022-10-22T12:18:01.872Z,8.05
2022-10-22T12:19:12.348Z,9.70
2022-10-22T12:20:17.572Z,10.20
2022-10-22T12:21:19.877Z,9.43
2022-10-22T12:22:24.837Z,10.95
2022-10-22T12:23:34.495Z,8.13
2022-10-22T12:24:40.742Z,7.90
2022-10-22T12:25:42.932Z,7.55
2022-10-22T12:26:47.137Z,11.07
2022-10-22T12:27:53.375Z,7.43
2022-10-22T12:29:00.310Z,13.48
2022-10-22T12:30:14.872Z,10.10
2022-10-22T12:31:17.584Z,13.82
2022-10-22T12:32:20.657Z,9.35
2022-10-22T12:33:24.050Z,7.93
2022-10-22T12:34:27.121Z,10.00
2022-10-22T12:35:32.276Z,13.00
2022-10-22T12:36:37.067Z,9.10
2022-10-22T12:37:40.291Z,10.55
2022-10-22T12:38:47.230Z,14.13
2022-10-22T12:39:50.462Z,11.45
2022-10-22T12:40:56.117Z,10.23
2022-10-22T12:41:59.378Z,9.68
2022-10-22T12:43:03.151Z,9.45
2022-10-22T12:44:07.142Z,9.52
2022-10-22T12:45:16.105Z,7.63
2022-10-22T12:46:19.508Z,9.02
2022-10-22T12:47:21.676Z,13.95
2022-10-22T12:48:28.132Z,10.65
2022-10-22T12:49:35.787Z,11.32
2022-10-22T12:50:44.444Z,11.88
2022-10-22T12:51:47.692Z,10.40
2022-10-22T12:52:50.949Z,12.57
2022-10-22T12:53:56.110Z,13.27
2022-10-22T12:54:59.206Z,13.20
2022-10-22T12:56:05.110Z,11.98
2022-10-22T12:57:14.492Z,8.40
2022-10-22T12:58:19.164Z,10.00
2022-10-22T12:59:25.621Z,7.18
2022-10-22T13:00:34.133Z,7.82
2022-10-22T13:01:39.146Z,7.35
2022-10-22T13:02:43.529Z,11.10
2022-10-22T13:03:49.934Z,9.40
2022-10-22T13:05:16.062Z,13.73
2022-10-22T13:06:26.441Z,14.65
2022-10-22T13:07:40.108Z,10.43
2022-10-22T13:08:42.852Z,8.13
2022-10-22T13:09:49.984Z,8.98
2022-10-22T13:10:54.761Z,12.18
2022-10-22T13:12:04.665Z,8.50
2022-10-22T13:13:07.386Z,10.63
2022-10-22T13:14:21.340Z,5.95
2022-10-22T13:15:36.936Z,13.52
2022-10-22T13:16:41.161Z,8.75
2022-10-22T13:17:43.733Z,11.93
2022-10-22T13:18:47.568Z,12.25
2022-10-22T13:20:01.638Z,12.68
2022-10-22T13:21:06.315Z,9.00
2022-10-22T13:22:28.523Z,10.32
2022-10-22T13:23:33.791Z,10.00
2022-10-22T13:24:39.164Z,13.68
2022-10-22T13:25:43.889Z,9.38
2022-10-22T13:26:49.925Z,8.98
2022-10-22T13:27:56.213Z,11.30
2022-10-22T13:29:01.191Z,7.13
2022-10-22T13:30:15.307Z,12.93
2022-10-22T13:31:25.012Z,9.27
2022-10-22T13:32:32.851Z,12.52
2022-10-22T13:33:39.236Z,8.45
2022-10-22T13:34:42.229Z,10.32
2022-10-22T13:35:49.370Z,8.77
2022-10-22T13:36:54.777Z,11.43
2022-10-22T13:37:57.265Z,8.82
2022-10-22T13:39:00.440Z,12.52
2022-10-22T13:40:02.503Z,12.32
2022-10-22T13:41:20.340Z,9.70
2022-10-22T13:42:23.466Z,10.63
2022-10-22T13:43:27.051Z,11.85
2022-10-22T13:44:30.335Z,11.02
2022-10-22T13:45:32.374Z,15.88
2022-10-22T13:46:40.574Z,10.63
2022-10-22T13:47:45.221Z,11.77
2022-10-22T13:48:50.746Z,8.38
2022-10-22T13:50:59.270Z,11.48
2022-10-22T13:52:01.372Z,8.55
2022-10-22T13:53:05.588Z,10.90
2022-10-22T13:54:14.111Z,13.25
2022-10-22T13:55:20.159Z,12.32
2022-10-22T13:56:24.026Z,11.73
2022-10-22T13:57:27.155Z,10.98
2022-10-22T13:58:29.206Z,10.35
2022-10-22T13:59:32.954Z,10.63
2022-10-22T14:00:36.198Z,13.77
2022-10-22T14:01:39.053Z,15.65
2022-10-22T14:02:42.671Z,15.57
2022-10-22T14:03:47.373Z,13.63
2022-10-22T14:04:49.827Z,11.35
2022-10-22T14:05:53.046Z,14.55
2022-10-22T14:06:56.794Z,9.70
2022-10-22T14:08:03.087Z,9.10
2022-10-22T14:09:08.965Z,8.60
2022-10-22T14:10:17.425Z,11.25
2022-10-22T14:11:20.466Z,8.95
2022-10-22T14:12:25.239Z,8.57
2022-10-22T14:13:28.426Z,7.88
2022-10-22T14:14:30.974Z,12.13
2022-10-22T14:15:35.470Z,11.57
2022-10-22T14:16:38.031Z,8.98
2022-10-22T14:17:45.907Z,11.07
2022-10-22T14:18:48.814Z,8.05
2022-10-22T14:19:51.914Z,11.43
2022-10-22T14:20:56.983Z,11.88
2022-10-22T14:22:00.133Z,12.73
2022-10-22T14:23:12.416Z,13.35
2022-10-22T14:24:16.909Z,14.60
2022-10-22T14:25:22.509Z,8.27
2022-10-22T14:26:28.278Z,14.40
2022-10-22T14:27:31.784Z,9.82
2022-10-22T14:28:41.274Z,17.23